createdAt,value
2018-06-16T00:00:41.549Z,1008.26
2018-06-16T00:01:41.569Z,1008.26
2018-06-16T00:02:41.589Z,1008.25
2018-06-16T00:03:41.610Z,1008.27
2018-06-16T00:04:41.635Z,1008.27
2018-06-16T00:05:41.655Z,1008.28
2018-06-16T00:06:41.678Z,1008.31
2018-06-16T00:07:41.705Z,1008.32
2018-06-16T00:08:41.724Z,1008.33
2018-06-16T00:09:41.743Z,1008.31
2018-06-16T00:10:41.765Z,1008.38
2018-06-16T00:11:41.789Z,1008.32
2018-06-16T00:12:41.836Z,1008.31
2018-06-16T00:13:41.872Z,1008.33
2018-06-16T00:14:41.852Z,1008.41
2018-06-16T00:15:41.874Z,1008.45
2018-06-16T00:16:41.900Z,1008.43
2018-06-16T00:17:41.928Z,1008.41
2018-06-16T00:18:41.941Z,1008.36
2018-06-16T00:19:41.962Z,1008.43
2018-06-16T00:20:41.987Z,1008.40
2018-06-16T00:21:42.009Z,1008.42
2018-06-16T00:22:42.031Z,1008.42
2018-06-16T00:23:42.052Z,1008.42
2018-06-16T00:24:42.072Z,1008.42
2018-06-16T00:25:42.096Z,1008.41
2018-06-16T00:26:42.116Z,1008.37
2018-06-16T00:27:42.139Z,1008.38
2018-06-16T00:28:42.162Z,1008.40
2018-06-16T00:29:42.181Z,1008.38
2018-06-16T00:30:42.204Z,1008.34
2018-06-16T00:31:42.229Z,1008.33
2018-06-16T00:32:42.251Z,1008.31
2018-06-16T00:33:42.272Z,1008.38
2018-06-16T00:34:42.293Z,1008.32
2018-06-16T00:35:42.312Z,1008.32
2018-06-16T00:36:42.334Z,1008.32
2018-06-16T00:37:42.358Z,1008.28
2018-06-16T00:38:42.379Z,1008.29
2018-06-16T00:39:42.398Z,1008.27
2018-06-16T00:40:42.424Z,1008.23
2018-06-16T00:41:42.460Z,1008.20
2018-06-16T00:42:42.469Z,1008.23
2018-06-16T00:43:42.489Z,1008.26
2018-06-16T00:44:42.511Z,1008.26
2018-06-16T00:45:42.533Z,1008.20
2018-06-16T00:46:42.558Z,1008.23
2018-06-16T00:47:42.576Z,1008.20
2018-06-16T00:48:42.597Z,1008.18
2018-06-16T00:49:42.619Z,1008.20
2018-06-16T00:50:42.639Z,1008.18
2018-06-16T00:51:42.664Z,1008.18
2018-06-16T00:52:42.686Z,1008.19
2018-06-16T00:53:42.709Z,1008.19
2018-06-16T00:54:42.726Z,1008.19
2018-06-16T00:55:42.751Z,1008.19
2018-06-16T00:56:42.771Z,1008.19
2018-06-16T00:57:42.797Z,1008.23
2018-06-16T00:58:42.816Z,1008.19
2018-06-16T00:59:42.835Z,1008.19
2018-06-16T01:00:42.858Z,1008.20
2018-06-16T01:01:42.881Z,1008.24
2018-06-16T01:02:42.900Z,1008.20
2018-06-16T01:03:42.924Z,1008.19
2018-06-16T01:04:42.945Z,1008.16
2018-06-16T01:05:42.968Z,1008.19
2018-06-16T01:06:42.991Z,1008.19
2018-06-16T01:07:43.010Z,1008.19
2018-06-16T01:08:43.031Z,1008.19
2018-06-16T01:09:43.056Z,1008.21
2018-06-16T01:10:43.074Z,1008.19
2018-06-16T01:11:43.099Z,1008.16
2018-06-16T01:12:43.117Z,1008.16
2018-06-16T01:13:43.174Z,1008.12
2018-06-16T01:14:43.161Z,1008.15
2018-06-16T01:15:43.185Z,1008.17
2018-06-16T01:16:43.206Z,1008.14
2018-06-16T01:17:43.231Z,1008.14
2018-06-16T01:18:43.249Z,1008.10
2018-06-16T01:19:43.269Z,1008.17
2018-06-16T01:20:43.292Z,1008.16
2018-06-16T01:21:43.315Z,1008.13
2018-06-16T01:22:43.339Z,1008.17
2018-06-16T01:23:43.356Z,1008.17
2018-06-16T01:24:43.381Z,1008.13
2018-06-16T01:25:43.400Z,1008.15
2018-06-16T01:26:43.526Z,1008.13
2018-06-16T01:27:43.447Z,1008.17
2018-06-16T01:28:43.466Z,1008.15
2018-06-16T01:29:43.490Z,1008.14
2018-06-16T01:30:43.510Z,1008.16
2018-06-16T01:31:43.530Z,1008.14
2018-06-16T01:32:43.556Z,1008.15
2018-06-16T01:33:43.578Z,1008.14
2018-06-16T01:34:43.599Z,1008.15
2018-06-16T01:35:43.621Z,1008.16
2018-06-16T01:36:43.642Z,1008.15
2018-06-16T01:37:43.665Z,1008.15
2018-06-16T01:38:43.687Z,1008.13
2018-06-16T01:39:43.708Z,1008.11
2018-06-16T01:40:43.727Z,1008.11
2018-06-16T01:41:43.752Z,1008.11
2018-06-16T01:42:43.772Z,1008.09
2018-06-16T01:43:43.793Z,1008.12
2018-06-16T01:44:43.817Z,1008.08
2018-06-16T01:45:43.836Z,1008.08
2018-06-16T01:46:43.861Z,1008.11
2018-06-16T01:47:43.884Z,1008.09
2018-06-16T01:48:43.903Z,1008.10
2018-06-16T01:49:43.926Z,1008.09
2018-06-16T01:50:43.944Z,1008.11
2018-06-16T01:51:43.966Z,1008.08
2018-06-16T01:52:43.988Z,1008.07
2018-06-16T01:53:44.011Z,1008.08
2018-06-16T01:54:44.032Z,1008.06
2018-06-16T01:55:44.052Z,1008.12
2018-06-16T01:56:44.077Z,1008.03
2018-06-16T01:57:44.097Z,1008.06
2018-06-16T01:58:44.124Z,1008.07
2018-06-16T01:59:44.139Z,1008.07
2018-06-16T02:00:44.160Z,1008.07
2018-06-16T02:01:44.187Z,1008.08
2018-06-16T02:02:44.205Z,1008.16
2018-06-16T02:03:44.226Z,1008.12
2018-06-16T02:04:44.248Z,1008.18
2018-06-16T02:05:44.270Z,1008.14
2018-06-16T02:06:44.292Z,1008.14
2018-06-16T02:07:44.312Z,1008.15
2018-06-16T02:08:44.337Z,1008.18
2018-06-16T02:09:44.359Z,1008.16
2018-06-16T02:10:44.380Z,1008.15
2018-06-16T02:11:44.402Z,1008.15
2018-06-16T02:12:44.424Z,1008.16
2018-06-16T02:13:44.445Z,1008.15
2018-06-16T02:14:44.468Z,1008.17
2018-06-16T02:15:44.487Z,1008.18
2018-06-16T02:16:44.510Z,1008.16
2018-06-16T02:17:44.533Z,1008.14
2018-06-16T02:18:44.550Z,1008.16
2018-06-16T02:19:44.574Z,1008.16
2018-06-16T02:20:44.593Z,1008.17
2018-06-16T02:21:44.616Z,1008.20
2018-06-16T02:22:44.636Z,1008.20
2018-06-16T02:23:44.660Z,1008.21
2018-06-16T02:24:44.678Z,1008.18
2018-06-16T02:25:44.700Z,1008.11
2018-06-16T02:26:44.723Z,1008.13
2018-06-16T02:27:44.743Z,1008.10
2018-06-16T02:28:44.765Z,1008.13
2018-06-16T02:29:44.790Z,1008.13
2018-06-16T02:30:44.812Z,1008.12
2018-06-16T02:31:44.832Z,1008.12
2018-06-16T02:32:44.852Z,1008.13
2018-06-16T02:33:44.881Z,1008.09
2018-06-16T02:34:44.894Z,1008.08
2018-06-16T02:35:44.922Z,1008.08
2018-06-16T02:36:44.937Z,1008.09
2018-06-16T02:37:44.961Z,1008.10
2018-06-16T02:38:44.984Z,1008.08
2018-06-16T02:39:45.001Z,1008.09
2018-06-16T02:40:45.024Z,1008.09
2018-06-16T02:41:45.047Z,1008.07
2018-06-16T02:42:45.066Z,1008.09
2018-06-16T02:43:45.087Z,1008.08
2018-06-16T02:44:45.113Z,1008.09
2018-06-16T02:45:45.134Z,1008.11
2018-06-16T02:46:45.152Z,1008.11
2018-06-16T02:47:45.174Z,1008.06
2018-06-16T02:48:45.193Z,1008.07
2018-06-16T02:49:45.219Z,1008.08
2018-06-16T02:50:45.240Z,1008.11
2018-06-16T02:51:45.388Z,1008.12
2018-06-16T02:52:45.279Z,1008.12
2018-06-16T02:53:45.301Z,1008.11
2018-06-16T02:54:45.323Z,1008.15
2018-06-16T02:55:45.343Z,1008.11
2018-06-16T02:56:45.368Z,1008.12
2018-06-16T02:57:45.390Z,1008.13
2018-06-16T02:58:45.408Z,1008.09
2018-06-16T02:59:45.427Z,1008.11
2018-06-16T03:00:45.451Z,1008.07
2018-06-16T03:01:45.474Z,1008.08
2018-06-16T03:02:45.495Z,1008.06
2018-06-16T03:03:45.513Z,1008.09
2018-06-16T03:04:45.537Z,1008.08
2018-06-16T03:05:45.556Z,1008.07
2018-06-16T03:06:45.582Z,1008.07
2018-06-16T03:07:45.598Z,1008.09
2018-06-16T03:08:45.624Z,1008.05
2018-06-16T03:09:45.641Z,1008.06
2018-06-16T03:10:45.662Z,1008.05
2018-06-16T03:11:45.686Z,1008.08
2018-06-16T03:12:45.706Z,1008.08
2018-06-16T03:13:45.727Z,1008.05
2018-06-16T03:14:45.748Z,1008.06
2018-06-16T03:15:45.768Z,1008.11
2018-06-16T03:16:45.789Z,1008.09
2018-06-16T03:17:45.811Z,1008.09
2018-06-16T03:18:45.833Z,1008.09
2018-06-16T03:19:45.860Z,1008.08
2018-06-16T03:20:45.877Z,1008.09
2018-06-16T03:21:45.898Z,1008.14
2018-06-16T03:22:45.919Z,1008.12
2018-06-16T03:23:45.941Z,1008.08
2018-06-16T03:24:45.960Z,1008.13
2018-06-16T03:25:45.984Z,1008.11
2018-06-16T03:26:46.003Z,1008.12
2018-06-16T03:27:46.022Z,1008.14
2018-06-16T03:28:46.045Z,1008.13
2018-06-16T03:29:46.065Z,1008.12
2018-06-16T03:30:46.087Z,1008.13
2018-06-16T03:31:46.107Z,1008.11
2018-06-16T03:32:46.128Z,1008.11
2018-06-16T03:33:46.150Z,1008.14
2018-06-16T03:34:46.174Z,1008.13
2018-06-16T03:35:46.193Z,1008.13
2018-06-16T03:36:46.216Z,1008.13
2018-06-16T03:37:46.240Z,1008.12
2018-06-16T03:38:46.259Z,1008.13
2018-06-16T03:39:46.278Z,1008.14
2018-06-16T03:40:46.298Z,1008.16
2018-06-16T03:41:46.319Z,1008.17
2018-06-16T03:42:46.340Z,1008.12
2018-06-16T03:43:46.361Z,1008.15
2018-06-16T03:44:46.382Z,1008.16
2018-06-16T03:45:46.407Z,1008.16
2018-06-16T03:46:46.443Z,1008.09
2018-06-16T03:47:46.445Z,1008.11
2018-06-16T03:48:46.468Z,1008.10
2018-06-16T03:49:46.488Z,1008.10
2018-06-16T03:50:46.509Z,1008.11
2018-06-16T03:51:46.530Z,1008.10
2018-06-16T03:52:46.553Z,1008.09
2018-06-16T03:53:46.574Z,1008.08
2018-06-16T03:54:46.596Z,1008.11
2018-06-16T03:55:46.615Z,1008.08
2018-06-16T03:56:46.639Z,1008.07
2018-06-16T03:57:46.661Z,1008.00
2018-06-16T03:58:46.681Z,1008.07
2018-06-16T03:59:46.699Z,1008.01
2018-06-16T04:00:46.721Z,1008.04
2018-06-16T04:01:46.771Z,1008.06
2018-06-16T04:02:46.771Z,1008.05
2018-06-16T04:03:46.785Z,1007.99
2018-06-16T04:04:46.808Z,1007.99
2018-06-16T04:05:46.827Z,1008.00
2018-06-16T04:06:46.854Z,1008.01
2018-06-16T04:07:46.871Z,1007.97
2018-06-16T04:08:46.894Z,1008.02
2018-06-16T04:09:46.911Z,1008.00
2018-06-16T04:10:46.936Z,1007.99
2018-06-16T04:11:46.955Z,1007.96
2018-06-16T04:12:46.975Z,1007.99
2018-06-16T04:13:46.999Z,1007.98
2018-06-16T04:14:47.020Z,1007.95
2018-06-16T04:15:47.039Z,1008.01
2018-06-16T04:16:47.062Z,1007.96
2018-06-16T04:17:47.084Z,1007.97
2018-06-16T04:18:47.103Z,1007.96
2018-06-16T04:19:47.127Z,1007.99
2018-06-16T04:20:47.149Z,1008.03
2018-06-16T04:21:47.166Z,1008.00
2018-06-16T04:22:47.187Z,1007.99
2018-06-16T04:23:47.208Z,1007.98
2018-06-16T04:24:47.230Z,1007.99
2018-06-16T04:25:47.254Z,1008.02
2018-06-16T04:26:47.273Z,1008.01
2018-06-16T04:27:47.299Z,1008.03
2018-06-16T04:28:47.316Z,1007.99
2018-06-16T04:29:47.336Z,1008.00
2018-06-16T04:30:47.361Z,1008.01
2018-06-16T04:31:47.380Z,1007.97
2018-06-16T04:32:47.400Z,1007.97
2018-06-16T04:33:47.425Z,1008.02
2018-06-16T04:34:47.507Z,1008.00
2018-06-16T04:35:47.469Z,1007.96
2018-06-16T04:36:47.486Z,1007.96
2018-06-16T04:37:47.509Z,1007.96
2018-06-16T04:38:47.527Z,1007.91
2018-06-16T04:39:47.548Z,1007.99
2018-06-16T04:40:47.573Z,1007.97
2018-06-16T04:41:47.595Z,1008.01
2018-06-16T04:42:47.614Z,1008.00
2018-06-16T04:43:47.635Z,1007.99
2018-06-16T04:44:47.656Z,1008.02
2018-06-16T04:45:47.712Z,1008.02
2018-06-16T04:46:47.700Z,1008.01
2018-06-16T04:47:47.717Z,1008.00
2018-06-16T04:48:47.742Z,1008.04
2018-06-16T04:49:47.762Z,1008.06
2018-06-16T04:50:47.783Z,1008.07
2018-06-16T04:51:47.804Z,1008.06
2018-06-16T04:52:47.829Z,1008.02
2018-06-16T04:53:47.849Z,1008.05
2018-06-16T04:54:47.873Z,1008.07
2018-06-16T04:55:47.892Z,1008.08
2018-06-16T04:56:47.913Z,1008.08
2018-06-16T04:57:47.933Z,1008.09
2018-06-16T04:58:47.954Z,1008.12
2018-06-16T04:59:47.975Z,1008.09
2018-06-16T05:00:47.998Z,1008.08
2018-06-16T05:01:48.021Z,1008.06
2018-06-16T05:02:48.042Z,1008.09
2018-06-16T05:03:48.064Z,1008.06
2018-06-16T05:04:48.082Z,1008.02
2018-06-16T05:05:48.107Z,1008.09
2018-06-16T05:06:48.131Z,1008.06
2018-06-16T05:07:48.149Z,1008.04
2018-06-16T05:08:48.172Z,1008.05
2018-06-16T05:09:48.192Z,1008.07
2018-06-16T05:10:48.215Z,1008.05
2018-06-16T05:11:48.233Z,1008.04
2018-06-16T05:12:48.254Z,1008.10
2018-06-16T05:13:48.283Z,1008.06
2018-06-16T05:14:48.298Z,1008.06
2018-06-16T05:15:48.322Z,1008.07
2018-06-16T05:16:48.341Z,1008.06
2018-06-16T05:17:48.363Z,1008.00
2018-06-16T05:18:48.387Z,1008.05
2018-06-16T05:19:48.406Z,1008.00
2018-06-16T05:20:48.431Z,1008.00
2018-06-16T05:21:48.457Z,1008.01
2018-06-16T05:22:48.475Z,1007.96
2018-06-16T05:23:48.495Z,1007.97
2018-06-16T05:24:48.515Z,1007.99
2018-06-16T05:25:48.551Z,1008.00
2018-06-16T05:26:48.563Z,1008.06
2018-06-16T05:27:48.593Z,1008.03
2018-06-16T05:28:48.603Z,1008.06
2018-06-16T05:29:48.627Z,1008.04
2018-06-16T05:30:48.649Z,1008.01
2018-06-16T05:31:48.668Z,1008.01
2018-06-16T05:32:48.689Z,1007.97
2018-06-16T05:33:48.719Z,1008.02
2018-06-16T05:34:48.733Z,1008.01
2018-06-16T05:35:48.757Z,1008.05
2018-06-16T05:36:48.777Z,1008.02
2018-06-16T05:37:48.803Z,1008.11
2018-06-16T05:38:48.826Z,1008.07
2018-06-16T05:39:48.846Z,1008.12
2018-06-16T05:40:48.868Z,1008.09
2018-06-16T05:41:48.889Z,1008.07
2018-06-16T05:42:48.913Z,1008.07
2018-06-16T05:43:48.935Z,1008.05
2018-06-16T05:44:48.957Z,1008.09
2018-06-16T05:45:48.977Z,1008.05
2018-06-16T05:46:49.005Z,1008.09
2018-06-16T05:47:49.019Z,1008.08
2018-06-16T05:48:49.044Z,1008.06
2018-06-16T05:49:49.067Z,1008.07
2018-06-16T05:50:49.089Z,1008.04
2018-06-16T05:51:49.111Z,1008.06
2018-06-16T05:52:49.130Z,1008.09
2018-06-16T05:53:49.154Z,1008.14
2018-06-16T05:54:49.176Z,1008.12
2018-06-16T05:55:49.202Z,1008.07
2018-06-16T05:56:49.220Z,1008.09
2018-06-16T05:57:49.242Z,1008.10
2018-06-16T05:58:49.269Z,1008.08
2018-06-16T05:59:49.286Z,1008.07
2018-06-16T06:00:49.309Z,1008.15
2018-06-16T06:01:49.334Z,1008.13
2018-06-16T06:02:49.356Z,1008.16
2018-06-16T06:03:49.375Z,1008.13
2018-06-16T06:04:49.400Z,1008.14
2018-06-16T06:05:49.421Z,1008.15
2018-06-16T06:06:49.447Z,1008.13
2018-06-16T06:07:49.467Z,1008.13
2018-06-16T06:08:49.491Z,1008.13
2018-06-16T06:09:49.510Z,1008.16
2018-06-16T06:10:49.537Z,1008.16
2018-06-16T06:11:49.558Z,1008.14
2018-06-16T06:12:49.583Z,1008.13
2018-06-16T06:13:49.602Z,1008.14
2018-06-16T06:14:49.625Z,1008.15
2018-06-16T06:15:49.717Z,1008.13
2018-06-16T06:16:49.671Z,1008.15
2018-06-16T06:17:49.690Z,1008.11
2018-06-16T06:18:49.714Z,1008.08
2018-06-16T06:19:49.739Z,1008.16
2018-06-16T06:20:49.757Z,1008.15
2018-06-16T06:21:49.787Z,1008.14
2018-06-16T06:22:49.804Z,1008.17
2018-06-16T06:23:49.826Z,1008.16
2018-06-16T06:24:49.848Z,1008.27
2018-06-16T06:25:49.871Z,1008.21
2018-06-16T06:26:49.900Z,1008.24
2018-06-16T06:27:49.922Z,1008.28
2018-06-16T06:28:49.942Z,1008.30
2018-06-16T06:29:49.962Z,1008.32
2018-06-16T06:30:49.986Z,1008.30
2018-06-16T06:31:50.008Z,1008.31
2018-06-16T06:32:50.030Z,1008.42
2018-06-16T06:33:50.055Z,1008.35
2018-06-16T06:34:50.080Z,1008.37
2018-06-16T06:35:50.104Z,1008.32
2018-06-16T06:36:50.125Z,1008.34
2018-06-16T06:37:50.145Z,1008.32
2018-06-16T06:38:50.170Z,1008.28
2018-06-16T06:39:50.194Z,1008.30
2018-06-16T06:40:50.215Z,1008.34
2018-06-16T06:41:50.239Z,1008.36
2018-06-16T06:42:50.262Z,1008.40
2018-06-16T06:43:50.286Z,1008.44
2018-06-16T06:44:50.307Z,1008.45
2018-06-16T06:45:50.331Z,1008.44
2018-06-16T06:46:50.357Z,1008.46
2018-06-16T06:47:50.380Z,1008.47
2018-06-16T06:48:50.400Z,1008.40
2018-06-16T06:49:50.426Z,1008.38
2018-06-16T06:50:50.448Z,1008.47
2018-06-16T06:51:50.475Z,1008.50
2018-06-16T06:52:50.494Z,1008.41
2018-06-16T06:53:50.519Z,1008.36
2018-06-16T06:54:50.544Z,1008.36
2018-06-16T06:55:50.569Z,1008.35
2018-06-16T06:56:50.591Z,1008.40
2018-06-16T06:57:50.639Z,1008.36
2018-06-16T06:58:50.637Z,1008.35
2018-06-16T06:59:50.663Z,1008.37
2018-06-16T07:00:50.687Z,1008.39
2018-06-16T07:01:50.710Z,1008.38
2018-06-16T07:02:50.733Z,1008.35
2018-06-16T07:03:50.762Z,1008.35
2018-06-16T07:04:50.784Z,1008.36
2018-06-16T07:05:50.806Z,1008.44
2018-06-16T07:06:50.832Z,1008.44
2018-06-16T07:07:50.857Z,1008.48
2018-06-16T07:08:50.879Z,1008.49
2018-06-16T07:09:50.909Z,1008.53
2018-06-16T07:10:50.948Z,1008.45
2018-06-16T07:11:50.953Z,1008.53
2018-06-16T07:12:50.974Z,1008.51
2018-06-16T07:13:50.999Z,1008.52
2018-06-16T07:14:51.026Z,1008.46
2018-06-16T07:15:51.050Z,1008.44
2018-06-16T07:16:51.072Z,1008.44
2018-06-16T07:17:51.101Z,1008.46
2018-06-16T07:18:51.122Z,1008.46
2018-06-16T07:19:51.149Z,1008.58
2018-06-16T07:20:51.173Z,1008.61
2018-06-16T07:21:51.199Z,1008.63
2018-06-16T07:22:51.225Z,1008.64
2018-06-16T07:23:51.246Z,1008.61
2018-06-16T07:24:51.271Z,1008.64
2018-06-16T07:25:51.297Z,1008.53
2018-06-16T07:26:51.324Z,1008.60
2018-06-16T07:27:51.347Z,1008.60
2018-06-16T07:28:51.374Z,1008.60
2018-06-16T07:29:51.398Z,1008.64
2018-06-16T07:30:51.423Z,1008.64
2018-06-16T07:31:51.448Z,1008.75
2018-06-16T07:32:51.475Z,1008.64
2018-06-16T07:33:51.499Z,1008.62
2018-06-16T07:34:51.528Z,1008.78
2018-06-16T07:35:51.559Z,1008.82
2018-06-16T07:36:51.579Z,1008.84
2018-06-16T07:37:51.602Z,1008.81
2018-06-16T07:38:51.686Z,1008.75
2018-06-16T07:39:51.653Z,1008.69
2018-06-16T07:40:51.680Z,1008.68
2018-06-16T07:41:51.712Z,1008.68
2018-06-16T07:42:51.735Z,1008.64
2018-06-16T07:43:51.757Z,1008.76
2018-06-16T07:44:51.783Z,1008.75
2018-06-16T07:45:51.811Z,1008.72
2018-06-16T07:46:51.838Z,1008.61
2018-06-16T07:47:51.866Z,1008.71
2018-06-16T07:48:51.939Z,1008.69
2018-06-16T07:49:51.915Z,1008.61
2018-06-16T07:50:51.943Z,1008.61
2018-06-16T07:51:51.965Z,1008.66
2018-06-16T07:52:51.993Z,1008.67
2018-06-16T07:55:52.071Z,1008.64
2018-06-16T07:56:52.119Z,1008.61
2018-06-16T07:57:52.126Z,1008.65
2018-06-16T07:58:52.152Z,1008.61
2018-06-16T07:59:52.176Z,1008.68
2018-06-16T08:00:52.206Z,1008.68
2018-06-16T08:01:52.234Z,1008.72
2018-06-16T08:02:52.265Z,1008.71
2018-06-16T08:03:52.285Z,1008.72
2018-06-16T08:04:52.315Z,1008.63
2018-06-16T08:05:52.341Z,1008.67
2018-06-16T08:06:52.369Z,1008.61
2018-06-16T08:07:52.398Z,1008.63
2018-06-16T08:08:52.425Z,1008.53
2018-06-16T08:09:52.457Z,1008.56
2018-06-16T08:10:52.483Z,1008.58
2018-06-16T08:11:52.513Z,1008.59
2018-06-16T08:12:52.582Z,1008.59
2018-06-16T08:13:52.566Z,1008.55
2018-06-16T08:14:52.594Z,1008.60
2018-06-16T08:15:52.616Z,1008.60
2018-06-16T08:16:52.649Z,1008.62
2018-06-16T08:17:52.676Z,1008.51
2018-06-16T08:18:52.702Z,1008.53
2018-06-16T08:19:52.733Z,1008.44
2018-06-16T08:20:52.758Z,1008.46
2018-06-16T08:21:52.788Z,1008.50
2018-06-16T08:22:52.818Z,1008.52
2018-06-16T08:23:52.847Z,1008.51
2018-06-16T08:24:52.874Z,1008.55
2018-06-16T08:25:53.103Z,1008.57
2018-06-16T08:26:52.929Z,1008.54
2018-06-16T08:27:52.956Z,1008.56
2018-06-16T08:28:52.985Z,1008.53
2018-06-16T08:29:53.017Z,1008.54
2018-06-16T08:30:53.041Z,1008.52
2018-06-16T08:31:53.071Z,1008.48
2018-06-16T08:32:53.097Z,1008.49
2018-06-16T08:33:53.128Z,1008.44
2018-06-16T08:34:53.219Z,1008.45
2018-06-16T08:35:53.182Z,1008.44
2018-06-16T08:36:53.214Z,1008.44
2018-06-16T08:37:53.240Z,1008.43
2018-06-16T08:38:53.272Z,1008.43
2018-06-16T08:39:53.298Z,1008.41
2018-06-16T08:40:53.327Z,1008.41
2018-06-16T08:41:53.360Z,1008.41
2018-06-16T08:42:53.385Z,1008.38
2018-06-16T08:43:53.412Z,1008.36
2018-06-16T08:44:53.443Z,1008.36
2018-06-16T08:45:53.471Z,1008.40
2018-06-16T08:46:53.498Z,1008.47
2018-06-16T08:47:53.528Z,1008.43
2018-06-16T08:48:53.557Z,1008.48
2018-06-16T08:49:53.583Z,1008.47
2018-06-16T08:50:53.612Z,1008.51
2018-06-16T08:51:53.639Z,1008.50
2018-06-16T08:52:53.669Z,1008.51
2018-06-16T08:53:53.697Z,1008.52
2018-06-16T08:54:53.725Z,1008.51
2018-06-16T08:55:53.752Z,1008.48
2018-06-16T08:56:53.791Z,1008.53
2018-06-16T08:57:53.810Z,1008.56
2018-06-16T08:58:53.841Z,1008.57
2018-06-16T08:59:53.870Z,1008.54
2018-06-16T09:00:53.897Z,1008.61
2018-06-16T09:01:53.925Z,1008.58
2018-06-16T09:02:53.950Z,1008.55
2018-06-16T09:03:53.978Z,1008.60
2018-06-16T09:04:54.009Z,1008.56
2018-06-16T09:05:54.035Z,1008.58
2018-06-16T09:06:54.064Z,1008.57
2018-06-16T09:07:54.094Z,1008.63
2018-06-16T09:08:54.121Z,1008.57
2018-06-16T09:09:54.146Z,1008.54
2018-06-16T09:10:54.176Z,1008.55
2018-06-16T09:11:54.202Z,1008.51
2018-06-16T09:12:54.230Z,1008.60
2018-06-16T09:13:54.262Z,1008.55
2018-06-16T09:14:54.291Z,1008.61
2018-06-16T09:15:54.318Z,1008.60
2018-06-16T09:16:54.346Z,1008.64
2018-06-16T09:17:54.374Z,1008.62
2018-06-16T09:18:54.403Z,1008.58
2018-06-16T09:19:54.431Z,1008.59
2018-06-16T09:20:54.456Z,1008.56
2018-06-16T09:21:54.483Z,1008.60
2018-06-16T09:22:54.512Z,1008.60
2018-06-16T09:23:54.542Z,1008.63
2018-06-16T09:24:54.570Z,1008.61
2018-06-16T09:25:54.598Z,1008.67
2018-06-16T09:26:54.625Z,1008.63
2018-06-16T09:27:54.665Z,1008.65
2018-06-16T09:28:54.679Z,1008.57
2018-06-16T09:29:54.708Z,1008.59
2018-06-16T09:30:54.738Z,1008.57
2018-06-16T09:31:54.767Z,1008.54
2018-06-16T09:32:54.793Z,1008.68
2018-06-16T09:33:54.822Z,1008.71
2018-06-16T09:34:54.852Z,1008.68
2018-06-16T09:35:54.879Z,1008.71
2018-06-16T09:36:54.907Z,1008.69
2018-06-16T09:37:54.935Z,1008.80
2018-06-16T09:38:54.962Z,1008.75
2018-06-16T09:39:54.990Z,1008.62
2018-06-16T09:40:55.053Z,1008.66
2018-06-16T09:41:55.050Z,1008.61
2018-06-16T09:42:55.074Z,1008.64
2018-06-16T09:43:55.104Z,1008.72
2018-06-16T09:44:55.133Z,1008.69
2018-06-16T09:45:55.158Z,1008.76
2018-06-16T09:46:55.188Z,1008.77
2018-06-16T09:47:55.213Z,1008.64
2018-06-16T09:48:55.245Z,1008.68
2018-06-16T09:49:55.272Z,1008.66
2018-06-16T09:50:55.301Z,1008.65
2018-06-16T09:51:55.327Z,1008.68
2018-06-16T09:52:55.355Z,1008.74
2018-06-16T09:53:55.384Z,1008.83
2018-06-16T09:54:55.411Z,1008.82
2018-06-16T09:55:55.439Z,1008.91
2018-06-16T09:56:55.465Z,1008.89
2018-06-16T09:57:55.494Z,1008.79
2018-06-16T09:58:55.523Z,1008.70
2018-06-16T09:59:55.547Z,1008.75
2018-06-16T10:00:55.574Z,1008.75
2018-06-16T10:01:55.606Z,1008.75
2018-06-16T10:02:55.633Z,1008.72
2018-06-16T10:03:55.661Z,1008.80
2018-06-16T10:04:55.689Z,1008.91
2018-06-16T10:05:55.718Z,1009.05
2018-06-16T10:06:55.743Z,1008.88
2018-06-16T10:07:55.773Z,1008.87
2018-06-16T10:08:55.802Z,1008.88
2018-06-16T10:09:55.833Z,1008.90
2018-06-16T10:10:55.858Z,1008.93
2018-06-16T10:11:55.884Z,1008.88
2018-06-16T10:12:55.915Z,1008.96
2018-06-16T10:13:55.940Z,1008.88
2018-06-16T10:14:55.969Z,1008.92
2018-06-16T10:15:56.012Z,1008.84
2018-06-16T10:16:56.027Z,1008.76
2018-06-16T10:17:56.058Z,1008.68
2018-06-16T10:18:56.084Z,1008.79
2018-06-16T10:19:56.116Z,1008.70
2018-06-16T10:20:56.143Z,1008.73
2018-06-16T10:21:56.173Z,1008.82
2018-06-16T10:22:56.199Z,1008.87
2018-06-16T10:23:56.229Z,1008.80
2018-06-16T10:24:56.260Z,1008.75
2018-06-16T10:25:56.287Z,1008.75
2018-06-16T10:26:56.316Z,1008.67
2018-06-16T10:27:56.347Z,1008.62
2018-06-16T10:28:56.425Z,1008.62
2018-06-16T10:29:56.402Z,1008.69
2018-06-16T10:30:56.431Z,1008.62
2018-06-16T10:31:56.458Z,1008.61
2018-06-16T10:32:56.484Z,1008.55
2018-06-16T10:33:56.518Z,1008.58
2018-06-16T10:34:56.546Z,1008.55
2018-06-16T10:35:56.574Z,1008.51
2018-06-16T10:36:56.600Z,1008.55
2018-06-16T10:37:56.628Z,1008.54
2018-06-16T10:38:56.662Z,1008.50
2018-06-16T10:39:56.688Z,1008.50
2018-06-16T10:40:56.719Z,1008.50
2018-06-16T10:41:56.744Z,1008.45
2018-06-16T10:42:56.774Z,1008.48
2018-06-16T10:43:56.803Z,1008.54
2018-06-16T10:44:56.830Z,1008.54
2018-06-16T10:45:56.862Z,1008.52
2018-06-16T10:46:56.890Z,1008.56
2018-06-16T10:47:56.920Z,1008.52
2018-06-16T10:48:56.944Z,1008.56
2018-06-16T10:49:56.978Z,1008.44
2018-06-16T10:50:57.001Z,1008.41
2018-06-16T10:51:57.033Z,1008.44
2018-06-16T10:52:57.059Z,1008.42
2018-06-16T10:53:57.091Z,1008.51
2018-06-16T10:54:57.118Z,1008.50
2018-06-16T10:55:57.146Z,1008.49
2018-06-16T10:56:57.173Z,1008.46
2018-06-16T10:57:57.204Z,1008.45
2018-06-16T10:58:57.229Z,1008.45
2018-06-16T10:59:57.258Z,1008.34
2018-06-16T11:00:57.286Z,1008.33
2018-06-16T11:01:57.315Z,1008.42
2018-06-16T11:02:57.345Z,1008.51
2018-06-16T11:03:57.374Z,1008.54
2018-06-16T11:04:57.402Z,1008.56
2018-06-16T11:05:57.430Z,1008.60
2018-06-16T11:06:57.460Z,1008.54
2018-06-16T11:07:57.484Z,1008.40
2018-06-16T11:08:57.515Z,1008.42
2018-06-16T11:09:57.544Z,1008.41
2018-06-16T11:10:57.570Z,1008.41
2018-06-16T11:11:57.600Z,1008.42
2018-06-16T11:12:57.629Z,1008.47
2018-06-16T11:13:57.654Z,1008.56
2018-06-16T11:14:57.685Z,1008.60
2018-06-16T11:15:57.715Z,1008.52
2018-06-16T11:16:57.738Z,1008.53
2018-06-16T11:17:57.769Z,1008.47
2018-06-16T11:18:57.843Z,1008.38
2018-06-16T11:19:57.825Z,1008.29
2018-06-16T11:20:57.856Z,1008.34
2018-06-16T11:21:57.881Z,1008.33
2018-06-16T11:22:57.910Z,1008.32
2018-06-16T11:23:57.935Z,1008.31
2018-06-16T11:24:57.962Z,1008.34
2018-06-16T11:25:57.993Z,1008.39
2018-06-16T11:26:58.021Z,1008.41
2018-06-16T11:27:58.049Z,1008.46
2018-06-16T11:28:58.078Z,1008.57
2018-06-16T11:29:58.102Z,1008.69
2018-06-16T11:30:58.130Z,1008.76
2018-06-16T11:31:58.160Z,1008.64
2018-06-16T11:32:58.189Z,1008.77
2018-06-16T11:33:58.214Z,1008.82
2018-06-16T11:34:58.244Z,1008.49
2018-06-16T11:35:58.272Z,1008.84
2018-06-16T11:36:58.298Z,1008.73
2018-06-16T11:37:58.329Z,1008.83
2018-06-16T11:38:58.353Z,1008.84
2018-06-16T11:39:58.380Z,1008.98
2018-06-16T11:40:58.408Z,1008.93
2018-06-16T11:41:58.439Z,1008.75
2018-06-16T11:42:58.466Z,1008.61
2018-06-16T11:43:58.495Z,1008.56
2018-06-16T11:44:58.524Z,1008.61
2018-06-16T11:45:58.548Z,1008.34
2018-06-16T11:46:58.578Z,1008.63
2018-06-16T11:47:58.607Z,1008.87
2018-06-16T11:48:58.638Z,1008.87
2018-06-16T11:49:58.665Z,1008.69
2018-06-16T11:50:58.693Z,1008.56
2018-06-16T11:51:58.720Z,1008.35
2018-06-16T11:52:58.749Z,1008.48
2018-06-16T11:53:58.775Z,1008.33
2018-06-16T11:54:58.806Z,1008.44
2018-06-16T11:55:58.834Z,1008.35
2018-06-16T11:56:58.870Z,1008.25
2018-06-16T11:57:58.890Z,1008.24
2018-06-16T11:58:58.925Z,1008.33
2018-06-16T11:59:58.948Z,1008.24
2018-06-16T12:00:58.975Z,1008.17
2018-06-16T12:01:59.031Z,1008.09
2018-06-16T12:02:59.067Z,1008.02
2018-06-16T12:03:59.064Z,1008.10
2018-06-16T12:04:59.094Z,1008.02
2018-06-16T12:05:59.122Z,1008.03
2018-06-16T12:06:59.148Z,1008.08
2018-06-16T12:07:59.176Z,1008.09